BIENTÔT MET'MAP
version 2.0 !

Prévue avant fin octobre,
la nouvelle version sera
plus belle, plus complète
et hébergée sur un serveur
3 fois plus puissant...
et toujours gratuite !


Pas compatible ?
Essayez la version Mobile !

SE CONNECTER : | S'inscrire | Disclaimer | Découvrir Orbifly |
Code OACI :
Lgende : VFR VFR Marginal IFR IFR Intensif IFR Trs Intensif
Visi :
Plafond :
>= 8 km
>= 3000ft
5 8 km
1000 3000 ft
1500m 5 km
500 1000 ft
800 1500m
200 500 ft
< 800m
< 200 ft

METAR - LIEE Cagliari Elmas - 29 May 2020 08:43 UTC
Data Sources :     NOAA   


- Altitude de l'aérodrome : 13 ft
- Code IATA : CAG
- Pas de NOTAMs connus.


LIEE - Cagliari Elmas

Dernier METAR connu : 2015/08/11 07:50 LIEE 110750Z 32013KT CAVOK 23/19 Q1012
TAF TAF LIEE
Valide du 29 à 06h jusqu'au 30 à 06h UTC


290500Z 2906/3006 34006KT CAVOK
BECMG 2908/2910 15012KT
BECMG 2918/2920 VRB05KT

Source NOAA


MET'MAP, la Météo Aéronautique d'un coup d'oeil ! - Copyright ORBIFLY Décembre 2007

Développement & Programmation : Alexandra Zaïnal
Co-Développement : Marc-Olivier Méhu
Soutien technique & logistique : Manuel Goepfert
Conception & Financement : Baudouin d'Aumeries